createdAt,value
2023-05-19T00:00:00.382Z,4.793
2023-05-19T00:01:00.378Z,4.789
2023-05-19T00:02:00.484Z,4.801
2023-05-19T00:03:00.561Z,4.791
2023-05-19T00:04:00.401Z,4.777
2023-05-19T00:05:00.417Z,4.776
2023-05-19T00:06:00.445Z,4.773
2023-05-19T00:07:00.451Z,4.764
2023-05-19T00:08:00.470Z,4.765
2023-05-19T00:09:00.471Z,4.763
2023-05-19T00:10:00.472Z,4.734
2023-05-19T00:11:00.486Z,4.722
2023-05-19T00:12:00.515Z,4.74
2023-05-19T00:13:00.544Z,4.738
2023-05-19T00:14:00.625Z,4.721
2023-05-19T00:15:00.618Z,4.718
2023-05-19T00:16:00.710Z,4.718
2023-05-19T00:17:00.648Z,4.725
2023-05-19T00:18:00.737Z,4.714
2023-05-19T00:19:00.732Z,4.713
2023-05-19T00:20:00.706Z,4.706
2023-05-19T00:21:00.743Z,4.706
2023-05-19T00:22:00.755Z,4.713
2023-05-19T00:23:00.816Z,4.724
2023-05-19T00:24:00.830Z,4.711
2023-05-19T00:25:00.838Z,4.711
2023-05-19T00:26:00.858Z,4.681
2023-05-19T00:27:00.873Z,4.676
2023-05-19T00:28:00.891Z,4.651
2023-05-19T00:29:00.918Z,4.658
2023-05-19T00:30:00.932Z,4.651
2023-05-19T00:31:00.957Z,4.644
2023-05-19T00:32:00.963Z,4.631
2023-05-19T00:33:01.049Z,4.634
2023-05-19T00:34:00.990Z,4.638
2023-05-19T00:35:00.989Z,4.635
2023-05-19T00:36:00.981Z,4.641
2023-05-19T00:37:01.021Z,4.636
2023-05-19T00:38:01.032Z,4.638
2023-05-19T00:39:01.046Z,4.626
2023-05-19T00:40:01.067Z,4.64
2023-05-19T00:41:00.150Z,4.617
2023-05-19T00:42:00.114Z,4.601
2023-05-19T00:43:00.151Z,4.598
2023-05-19T00:44:00.214Z,4.62
2023-05-19T00:45:00.251Z,4.619
2023-05-19T00:46:00.209Z,4.619
2023-05-19T00:47:00.369Z,4.62
2023-05-19T00:48:00.290Z,4.611
2023-05-19T00:49:00.277Z,4.608
2023-05-19T00:50:00.292Z,4.599
2023-05-19T00:51:00.312Z,4.613
2023-05-19T00:52:00.328Z,4.601
2023-05-19T00:53:00.344Z,4.598
2023-05-19T00:54:00.360Z,4.593
2023-05-19T00:55:00.367Z,4.593
2023-05-19T00:56:00.381Z,4.578
2023-05-19T00:57:00.386Z,4.58
2023-05-19T00:58:00.391Z,4.576
2023-05-19T00:59:00.394Z,4.585
2023-05-19T01:00:00.427Z,4.581
2023-05-19T01:01:00.491Z,4.583
2023-05-19T01:02:00.469Z,4.583
2023-05-19T01:03:00.554Z,4.583
2023-05-19T01:04:00.641Z,4.57
2023-05-19T01:05:00.550Z,4.57
2023-05-19T01:06:00.613Z,4.571
2023-05-19T01:07:00.611Z,4.561
2023-05-19T01:08:00.628Z,4.554
2023-05-19T01:09:00.670Z,4.551
2023-05-19T01:10:00.710Z,4.554
2023-05-19T01:11:00.727Z,4.545
2023-05-19T01:12:00.726Z,4.551
2023-05-19T01:13:00.736Z,4.53
2023-05-19T01:14:00.774Z,4.562
2023-05-19T01:15:00.821Z,4.563
2023-05-19T01:16:00.878Z,4.565
2023-05-19T01:17:00.845Z,4.569
2023-05-19T01:18:00.880Z,4.547
2023-05-19T01:19:00.907Z,4.545
2023-05-19T01:20:00.895Z,4.544
2023-05-19T01:21:00.915Z,4.532
2023-05-19T01:22:00.927Z,4.542
2023-05-19T01:23:00.929Z,4.527
2023-05-19T01:24:00.939Z,4.53
2023-05-19T01:25:00.954Z,4.543
2023-05-19T01:26:00.959Z,4.529
2023-05-19T01:27:00.992Z,4.507
2023-05-19T01:28:01.020Z,4.505
2023-05-19T01:29:01.049Z,4.499
2023-05-19T01:30:01.090Z,4.505
2023-05-19T01:31:00.138Z,4.506
2023-05-19T01:32:00.212Z,4.506
2023-05-19T01:33:00.188Z,4.51
2023-05-19T01:34:00.170Z,4.496
2023-05-19T01:35:00.205Z,4.484
2023-05-19T01:36:00.235Z,4.515
2023-05-19T01:37:00.249Z,4.496
2023-05-19T01:38:00.275Z,4.493
2023-05-19T01:39:00.298Z,4.504
2023-05-19T01:40:00.322Z,4.504
2023-05-19T01:41:00.342Z,4.483
2023-05-19T01:42:00.369Z,4.492
2023-05-19T01:43:00.391Z,4.502
2023-05-19T01:44:00.420Z,4.491
2023-05-19T01:45:00.426Z,4.495
2023-05-19T01:46:00.497Z,4.467
2023-05-19T01:47:00.480Z,4.469
2023-05-19T01:48:00.542Z,4.461
2023-05-19T01:49:00.519Z,4.457
2023-05-19T01:50:00.548Z,4.447
2023-05-19T01:51:00.560Z,4.435
2023-05-19T01:52:00.572Z,4.42
2023-05-19T01:53:00.600Z,4.413
2023-05-19T01:54:00.608Z,4.4
2023-05-19T01:55:00.618Z,4.387
2023-05-19T01:56:00.625Z,4.376
2023-05-19T01:57:00.629Z,4.384
2023-05-19T01:58:00.675Z,4.363
2023-05-19T01:59:00.708Z,4.373
2023-05-19T02:00:00.713Z,4.377
2023-05-19T02:01:00.762Z,4.403
2023-05-19T02:02:00.784Z,4.382
2023-05-19T02:03:00.826Z,4.388
2023-05-19T02:04:00.848Z,4.366
2023-05-19T02:05:00.821Z,4.363
2023-05-19T02:06:00.839Z,4.372
2023-05-19T02:07:00.870Z,4.384
2023-05-19T02:08:00.891Z,4.365
2023-05-19T02:09:00.903Z,4.353
2023-05-19T02:10:00.916Z,4.358
2023-05-19T02:11:00.949Z,4.352
2023-05-19T02:12:00.952Z,4.342
2023-05-19T02:13:00.972Z,4.377
2023-05-19T02:14:00.996Z,4.374
2023-05-19T02:15:01.009Z,4.377
2023-05-19T02:16:01.049Z,4.38
2023-05-19T02:17:01.033Z,4.381
2023-05-19T02:18:01.069Z,4.363
2023-05-19T02:19:01.097Z,4.347
2023-05-19T02:20:01.041Z,4.339
2023-05-19T02:21:01.071Z,4.367
2023-05-19T02:22:00.129Z,4.374
2023-05-19T02:23:00.154Z,4.377
2023-05-19T02:24:00.169Z,4.375
2023-05-19T02:25:00.196Z,4.354
2023-05-19T02:26:00.221Z,4.36
2023-05-19T02:27:00.244Z,4.337
2023-05-19T02:28:00.277Z,4.333
2023-05-19T02:29:00.286Z,4.336
2023-05-19T02:30:00.371Z,4.326
2023-05-19T02:31:00.333Z,4.332
2023-05-19T02:32:00.440Z,4.318
2023-05-19T02:33:00.446Z,4.297
2023-05-19T02:34:00.428Z,4.292
2023-05-19T02:35:00.438Z,4.299
2023-05-19T02:36:00.453Z,4.297
2023-05-19T02:37:00.469Z,4.288
2023-05-19T02:38:00.507Z,4.317
2023-05-19T02:39:00.538Z,4.288
2023-05-19T02:40:00.526Z,4.282
2023-05-19T02:41:00.551Z,4.288
2023-05-19T02:42:00.560Z,4.253
2023-05-19T02:43:00.577Z,4.252
2023-05-19T02:44:00.593Z,4.278
2023-05-19T02:45:00.624Z,4.281
2023-05-19T02:46:00.730Z,4.285
2023-05-19T02:47:00.631Z,4.276
2023-05-19T02:48:00.700Z,4.285
2023-05-19T02:49:00.648Z,4.27
2023-05-19T02:50:00.651Z,4.257
2023-05-19T02:51:00.681Z,4.257
2023-05-19T02:52:00.691Z,4.254
2023-05-19T02:53:00.721Z,4.278
2023-05-19T02:54:00.748Z,4.28
2023-05-19T02:55:00.780Z,4.28
2023-05-19T02:56:00.806Z,4.28
2023-05-19T02:57:00.846Z,4.267
2023-05-19T02:58:00.858Z,4.264
2023-05-19T02:59:00.898Z,4.263
2023-05-19T03:00:00.908Z,4.271
2023-05-19T03:01:00.920Z,4.265
2023-05-19T03:02:01.023Z,4.248
2023-05-19T03:03:01.054Z,4.246
2023-05-19T03:04:01.199Z,4.24
2023-05-19T03:05:01.022Z,4.24
2023-05-19T03:06:01.057Z,4.252
2023-05-19T03:07:01.075Z,4.263
2023-05-19T03:08:00.188Z,4.253
2023-05-19T03:09:00.156Z,4.249
2023-05-19T03:10:00.167Z,4.242
2023-05-19T03:11:00.154Z,4.276
2023-05-19T03:12:00.171Z,4.277
2023-05-19T03:13:00.181Z,4.311
2023-05-19T03:14:00.179Z,4.314
2023-05-19T03:15:00.192Z,4.319
2023-05-19T03:16:00.258Z,4.334
2023-05-19T03:17:00.293Z,4.335
2023-05-19T03:18:00.268Z,4.318
2023-05-19T03:19:00.365Z,4.32
2023-05-19T03:20:00.279Z,4.322
2023-05-19T03:21:00.321Z,4.321
2023-05-19T03:22:00.346Z,4.313
2023-05-19T03:23:00.372Z,4.315
2023-05-19T03:24:00.392Z,4.315
2023-05-19T03:25:00.429Z,4.32
2023-05-19T03:26:00.431Z,4.322
2023-05-19T03:27:00.465Z,4.332
2023-05-19T03:28:00.500Z,4.335
2023-05-19T03:29:00.517Z,4.35
2023-05-19T03:30:00.539Z,4.389
2023-05-19T03:31:00.565Z,4.393
2023-05-19T03:32:00.646Z,4.358
2023-05-19T03:33:00.690Z,4.366
2023-05-19T03:34:00.623Z,4.373
2023-05-19T03:35:00.641Z,4.353
2023-05-19T03:36:00.682Z,4.363
2023-05-19T03:37:00.693Z,4.373
2023-05-19T03:38:00.691Z,4.371
2023-05-19T03:39:00.695Z,4.427
2023-05-19T03:40:00.713Z,4.434
2023-05-19T03:41:00.738Z,4.419
2023-05-19T03:42:00.740Z,4.436
2023-05-19T03:43:00.753Z,4.445
2023-05-19T03:44:00.762Z,4.439
2023-05-19T03:45:00.792Z,4.434
2023-05-19T03:46:00.928Z,4.439
2023-05-19T03:47:00.842Z,4.454
2023-05-19T03:48:00.907Z,4.437
2023-05-19T03:49:00.886Z,4.438
2023-05-19T03:50:00.910Z,4.457
2023-05-19T03:51:00.937Z,4.445
2023-05-19T03:52:00.958Z,4.468
2023-05-19T03:53:00.991Z,4.461
2023-05-19T03:54:01.000Z,4.455
2023-05-19T03:55:01.031Z,4.462
2023-05-19T03:56:01.044Z,4.499
2023-05-19T03:57:01.064Z,4.501
2023-05-19T03:58:01.082Z,4.526
2023-05-19T03:59:00.128Z,4.524
2023-05-19T04:00:00.241Z,4.519
2023-05-19T04:01:00.152Z,4.534
2023-05-19T04:02:00.192Z,4.544
2023-05-19T04:03:00.259Z,4.552
2023-05-19T04:04:00.226Z,4.546
2023-05-19T04:05:00.163Z,4.573
2023-05-19T04:06:00.196Z,4.577
2023-05-19T04:07:00.204Z,4.577
2023-05-19T04:08:00.213Z,4.571
2023-05-19T04:09:00.239Z,4.579
2023-05-19T04:10:00.327Z,4.581
2023-05-19T04:11:00.311Z,4.589
2023-05-19T04:12:00.329Z,4.588
2023-05-19T04:13:00.346Z,4.583
2023-05-19T04:14:00.364Z,4.592
2023-05-19T04:15:00.409Z,4.633
2023-05-19T04:16:00.452Z,4.633
2023-05-19T04:17:00.441Z,4.632
2023-05-19T04:18:00.527Z,4.643
2023-05-19T04:19:00.567Z,4.634
2023-05-19T04:20:00.495Z,4.631
2023-05-19T04:22:01.544Z,4.657
2023-05-19T04:23:00.553Z,4.674
2023-05-19T04:24:00.568Z,4.683
2023-05-19T04:25:00.576Z,4.687
2023-05-19T04:26:00.586Z,4.718
2023-05-19T04:27:00.595Z,4.716
2023-05-19T04:28:00.616Z,4.712
2023-05-19T04:29:00.608Z,4.735
2023-05-19T04:30:00.634Z,4.738
2023-05-19T04:31:00.647Z,4.722
2023-05-19T04:32:00.638Z,4.747
2023-05-19T04:33:00.717Z,4.753
2023-05-19T04:34:00.698Z,4.76
2023-05-19T04:35:00.720Z,4.77
2023-05-19T04:36:00.744Z,4.781
2023-05-19T04:37:00.767Z,4.784
2023-05-19T04:38:00.783Z,4.79
2023-05-19T04:39:00.817Z,4.798
2023-05-19T04:40:00.842Z,4.839
2023-05-19T04:41:00.873Z,4.862
2023-05-19T04:42:00.902Z,4.882
2023-05-19T04:43:00.925Z,4.878
2023-05-19T04:44:00.944Z,4.881
2023-05-19T04:45:00.973Z,4.894
2023-05-19T04:46:00.995Z,4.892
2023-05-19T04:47:01.081Z,4.947
2023-05-19T04:48:01.071Z,4.949
2023-05-19T04:49:01.068Z,4.99
2023-05-19T04:50:01.085Z,4.99
2023-05-19T04:51:00.136Z,4.992
2023-05-19T04:52:01.618Z,5.007
2023-05-19T04:53:00.370Z,5.016
2023-05-19T04:54:00.198Z,5.023
2023-05-19T04:55:00.862Z,5.061
2023-05-19T04:56:00.185Z,5.07
2023-05-19T04:57:00.202Z,5.072
2023-05-19T04:58:00.209Z,5.073
2023-05-19T04:59:00.242Z,5.089
2023-05-19T05:00:00.457Z,5.123
2023-05-19T05:01:00.238Z,5.131
2023-05-19T05:02:00.343Z,5.142
2023-05-19T05:03:00.417Z,5.172
2023-05-19T05:04:00.417Z,5.175
2023-05-19T05:05:00.329Z,5.178
2023-05-19T05:06:00.354Z,5.174
2023-05-19T05:07:00.360Z,5.168
2023-05-19T05:08:00.405Z,5.194
2023-05-19T05:09:00.414Z,5.194
2023-05-19T05:10:00.451Z,5.215
2023-05-19T05:11:00.464Z,5.2
2023-05-19T05:12:00.484Z,5.201
2023-05-19T05:13:00.512Z,5.194
2023-05-19T05:14:00.528Z,5.203
2023-05-19T05:15:00.550Z,5.208
2023-05-19T05:16:00.608Z,5.202
2023-05-19T05:17:00.584Z,5.169
2023-05-19T05:18:00.791Z,5.188
2023-05-19T05:19:00.664Z,5.194
2023-05-19T05:20:00.639Z,5.207
2023-05-19T05:21:00.653Z,5.239
2023-05-19T05:22:00.646Z,5.234
2023-05-19T05:23:00.653Z,5.221
2023-05-19T05:24:00.658Z,5.228
2023-05-19T05:25:00.702Z,5.269
2023-05-19T05:26:00.713Z,5.275
2023-05-19T05:27:00.754Z,5.294
2023-05-19T05:28:00.774Z,5.294
2023-05-19T05:29:00.801Z,5.297
2023-05-19T05:30:00.830Z,5.335
2023-05-19T05:31:00.857Z,5.348
2023-05-19T05:32:00.934Z,5.318
2023-05-19T05:33:00.987Z,5.333
2023-05-19T05:34:00.952Z,5.368
2023-05-19T05:35:00.966Z,5.417
2023-05-19T05:36:00.993Z,5.442
2023-05-19T05:37:01.010Z,5.434
2023-05-19T05:38:01.025Z,5.453
2023-05-19T05:39:01.055Z,5.453
2023-05-19T05:40:01.081Z,5.416
2023-05-19T05:41:00.099Z,5.422
2023-05-19T05:42:00.113Z,5.442
2023-05-19T05:43:00.174Z,5.45
2023-05-19T05:44:00.171Z,5.471
2023-05-19T05:45:00.189Z,5.457
2023-05-19T05:46:00.290Z,5.475
2023-05-19T05:47:00.204Z,5.496
2023-05-19T05:48:00.307Z,5.414
2023-05-19T05:49:00.232Z,5.453
2023-05-19T05:50:00.285Z,5.391
2023-05-19T05:51:00.257Z,5.401
2023-05-19T05:53:00.292Z,5.39
2023-05-19T05:54:00.316Z,5.422
2023-05-19T05:55:00.346Z,5.43
2023-05-19T05:56:00.384Z,5.441
2023-05-19T05:57:00.401Z,5.439
2023-05-19T05:58:00.424Z,5.468
2023-05-19T05:59:00.460Z,5.478
2023-05-19T06:00:00.499Z,5.495
2023-05-19T06:01:00.501Z,5.542
2023-05-19T06:02:00.561Z,5.538
2023-05-19T06:03:00.687Z,5.51
2023-05-19T06:04:00.597Z,5.519
2023-05-19T06:05:00.772Z,5.554
2023-05-19T06:06:00.675Z,5.572
2023-05-19T06:07:00.651Z,5.595
2023-05-19T06:08:00.684Z,5.652
2023-05-19T06:09:00.679Z,5.68
2023-05-19T06:10:00.717Z,5.711
2023-05-19T06:11:00.723Z,5.736
2023-05-19T06:12:00.758Z,5.696
2023-05-19T06:13:00.781Z,5.727
2023-05-19T06:14:00.793Z,5.757
2023-05-19T06:15:00.808Z,5.75
2023-05-19T06:16:02.133Z,5.739
2023-05-19T06:17:00.831Z,5.72
2023-05-19T06:18:00.867Z,5.777
2023-05-19T06:19:00.888Z,5.804
2023-05-19T06:20:00.861Z,5.879
2023-05-19T06:21:00.881Z,5.898
2023-05-19T06:22:00.875Z,5.933
2023-05-19T06:23:00.893Z,5.949
2023-05-19T06:24:00.910Z,5.966
2023-05-19T06:25:00.930Z,5.991
2023-05-19T06:26:00.956Z,6.016
2023-05-19T06:27:00.982Z,6.067
2023-05-19T06:28:01.043Z,6.15
2023-05-19T06:29:01.043Z,6.143
2023-05-19T06:30:01.085Z,6.118
2023-05-19T06:31:01.111Z,6.092
2023-05-19T06:32:00.166Z,6.063
2023-05-19T06:33:00.258Z,6.031
2023-05-19T06:34:00.211Z,6.013
2023-05-19T06:35:00.182Z,6.018
2023-05-19T06:36:00.208Z,6.018
2023-05-19T06:37:00.230Z,6.027
2023-05-19T06:38:00.236Z,6.039
2023-05-19T06:39:02.502Z,6.074
2023-05-19T06:40:00.271Z,6.066
2023-05-19T06:41:00.287Z,6.084
2023-05-19T06:42:00.308Z,6.064
2023-05-19T06:43:00.306Z,6.069
2023-05-19T06:44:00.321Z,6.096
2023-05-19T06:45:00.334Z,6.129
2023-05-19T06:46:00.332Z,6.139
2023-05-19T06:47:00.403Z,6.2
2023-05-19T06:48:00.463Z,6.168
2023-05-19T06:49:00.387Z,6.172
2023-05-19T06:50:00.434Z,6.19
2023-05-19T06:51:00.458Z,6.179
2023-05-19T06:52:00.481Z,6.214
2023-05-19T06:53:00.520Z,6.189
2023-05-19T06:54:00.566Z,6.241
2023-05-19T06:55:00.552Z,6.264
2023-05-19T06:56:00.694Z,6.368
2023-05-19T06:57:00.591Z,6.413
2023-05-19T06:58:00.615Z,6.477
2023-05-19T06:59:00.646Z,6.497
2023-05-19T07:00:00.644Z,6.569
2023-05-19T07:01:00.685Z,6.557
2023-05-19T07:02:00.734Z,6.559
2023-05-19T07:03:00.773Z,6.545
2023-05-19T07:04:00.854Z,6.537
2023-05-19T07:05:00.765Z,6.662
2023-05-19T07:06:00.747Z,6.624
2023-05-19T07:07:00.758Z,6.714
2023-05-19T07:08:00.772Z,6.755
2023-05-19T07:09:00.780Z,6.76
2023-05-19T07:10:00.788Z,6.709
2023-05-19T07:11:00.802Z,6.745
2023-05-19T07:12:00.829Z,6.749
2023-05-19T07:13:00.851Z,6.791
2023-05-19T07:14:00.880Z,6.783
2023-05-19T07:15:00.930Z,6.829
2023-05-19T07:16:00.996Z,6.877
2023-05-19T07:17:00.953Z,6.868
2023-05-19T07:18:01.019Z,6.918
2023-05-19T07:19:01.070Z,6.837
2023-05-19T07:20:01.049Z,6.875
2023-05-19T07:21:01.052Z,6.902
2023-05-19T07:22:01.070Z,6.939
2023-05-19T07:23:00.133Z,7.03
2023-05-19T07:24:00.200Z,7.025
2023-05-19T07:25:00.141Z,7.074
2023-05-19T07:26:00.164Z,7.088
2023-05-19T07:27:00.188Z,7.08
2023-05-19T07:28:00.211Z,7.101
2023-05-19T07:29:00.227Z,7.121
2023-05-19T07:30:00.234Z,7.112
2023-05-19T07:31:00.251Z,7.047
2023-05-19T07:32:00.290Z,7.007
2023-05-19T07:33:00.332Z,7.056
2023-05-19T07:34:00.278Z,7.095
2023-05-19T07:35:00.303Z,7.087
2023-05-19T07:36:00.289Z,7.126
2023-05-19T07:37:00.311Z,7.155
2023-05-19T07:38:00.307Z,7.112
2023-05-19T07:39:00.371Z,7.088
2023-05-19T07:40:00.386Z,7.136
2023-05-19T07:41:00.464Z,7.157
2023-05-19T07:42:00.448Z,7.24
2023-05-19T07:43:00.466Z,7.256
2023-05-19T07:44:00.498Z,7.246
2023-05-19T07:45:00.548Z,7.234
2023-05-19T07:46:00.706Z,7.212
2023-05-19T07:47:00.599Z,7.254
2023-05-19T07:48:00.725Z,7.197
2023-05-19T07:49:00.637Z,7.21
2023-05-19T07:50:00.657Z,7.202
2023-05-19T07:51:00.684Z,7.172
2023-05-19T07:52:00.697Z,7.064
2023-05-19T07:53:00.716Z,6.986
2023-05-19T07:54:00.742Z,7.019
2023-05-19T07:55:00.759Z,6.953
2023-05-19T07:56:00.772Z,6.91
2023-05-19T07:57:00.794Z,6.913
2023-05-19T07:58:00.807Z,6.823
2023-05-19T07:59:00.829Z,6.802
2023-05-19T08:00:00.867Z,6.785
2023-05-19T08:01:00.861Z,6.806
2023-05-19T08:02:00.905Z,6.784
2023-05-19T08:03:00.953Z,6.723
2023-05-19T08:04:01.008Z,6.764
2023-05-19T08:05:00.896Z,6.752
2023-05-19T08:06:00.902Z,6.727
2023-05-19T08:07:00.925Z,6.728
2023-05-19T08:08:00.950Z,6.676
2023-05-19T08:09:00.975Z,6.784
2023-05-19T08:10:01.013Z,6.759
2023-05-19T08:11:01.033Z,6.686
2023-05-19T08:12:01.057Z,6.728
2023-05-19T08:13:01.085Z,6.779
2023-05-19T08:14:00.124Z,6.819
2023-05-19T08:15:01.381Z,6.86
2023-05-19T08:16:00.255Z,6.875
2023-05-19T08:17:00.187Z,6.845
2023-05-19T08:18:00.247Z,6.874
2023-05-19T08:19:00.276Z,6.846
2023-05-19T08:20:00.250Z,6.836
2023-05-19T08:21:00.279Z,6.813
2023-05-19T08:22:00.309Z,6.819
2023-05-19T08:23:00.355Z,6.832
2023-05-19T08:24:00.337Z,6.825
2023-05-19T08:25:00.358Z,6.852
2023-05-19T08:26:00.397Z,6.836
2023-05-19T08:27:00.393Z,6.873
2023-05-19T08:28:00.422Z,6.845
2023-05-19T08:29:00.433Z,6.782
2023-05-19T08:30:00.460Z,6.78
2023-05-19T08:31:00.510Z,6.831
2023-05-19T08:32:00.461Z,6.807
2023-05-19T08:33:00.475Z,6.844
2023-05-19T08:34:00.532Z,6.854
2023-05-19T08:35:00.547Z,6.85
2023-05-19T08:36:00.563Z,6.705
2023-05-19T08:37:00.560Z,6.641
2023-05-19T08:38:00.583Z,6.569
2023-05-19T08:39:00.616Z,6.594
2023-05-19T08:40:00.653Z,6.562
2023-05-19T08:41:00.665Z,6.578
2023-05-19T08:42:00.701Z,6.536
2023-05-19T08:43:00.718Z,6.562
2023-05-19T08:44:00.769Z,6.645
2023-05-19T08:45:00.776Z,6.617
2023-05-19T08:46:00.780Z,6.608
2023-05-19T08:47:00.941Z,6.62
2023-05-19T08:48:00.834Z,6.541
2023-05-19T08:49:00.839Z,6.557
2023-05-19T08:50:00.865Z,6.618
2023-05-19T08:51:00.890Z,6.611
2023-05-19T08:52:00.899Z,6.635
2023-05-19T08:53:00.910Z,6.578
2023-05-19T08:54:00.938Z,6.531
2023-05-19T08:55:01.008Z,6.525
2023-05-19T08:56:00.943Z,6.461
2023-05-19T08:57:00.951Z,6.454
2023-05-19T08:58:00.965Z,6.334
2023-05-19T08:59:00.982Z,6.336
2023-05-19T09:00:01.030Z,6.349
2023-05-19T09:01:01.082Z,6.305
2023-05-19T09:02:01.057Z,6.349
2023-05-19T09:03:05.906Z,6.378
2023-05-19T09:04:00.216Z,6.37
2023-05-19T09:05:00.404Z,6.366
2023-05-19T09:06:00.253Z,6.353
2023-05-19T09:07:00.189Z,6.401
2023-05-19T09:08:00.216Z,6.405
2023-05-19T09:09:00.235Z,6.476
2023-05-19T09:10:00.272Z,6.438
2023-05-19T09:11:00.295Z,6.416
2023-05-19T09:12:00.342Z,6.46
2023-05-19T09:13:00.339Z,6.596
2023-05-19T09:14:00.370Z,6.606
2023-05-19T09:15:00.400Z,6.517
2023-05-19T09:16:00.421Z,6.513
2023-05-19T09:17:00.563Z,6.479
2023-05-19T09:18:00.479Z,6.557
2023-05-19T09:19:00.501Z,6.56
2023-05-19T09:20:00.493Z,6.577
2023-05-19T09:21:00.568Z,6.689
2023-05-19T09:22:00.515Z,6.713
2023-05-19T09:23:00.577Z,6.712
2023-05-19T09:24:00.560Z,6.743
2023-05-19T09:25:00.545Z,6.655
2023-05-19T09:26:00.553Z,6.629
2023-05-19T09:27:00.667Z,6.603
2023-05-19T09:28:00.580Z,6.551
2023-05-19T09:29:00.621Z,6.537
2023-05-19T09:30:00.648Z,6.566
2023-05-19T09:31:00.671Z,6.602
2023-05-19T09:32:01.220Z,6.508
2023-05-19T09:33:00.755Z,6.489
2023-05-19T09:34:00.747Z,6.53
2023-05-19T09:35:00.762Z,6.562
2023-05-19T09:36:00.790Z,6.551
2023-05-19T09:37:00.821Z,6.659
2023-05-19T09:38:00.840Z,6.678
2023-05-19T09:39:00.867Z,6.631
2023-05-19T09:40:00.884Z,6.522
2023-05-19T09:41:00.897Z,6.607
2023-05-19T09:42:00.940Z,6.596
2023-05-19T09:43:00.954Z,6.61
2023-05-19T09:44:00.987Z,6.63
2023-05-19T09:45:00.994Z,6.605
2023-05-19T09:46:01.014Z,6.525
2023-05-19T09:47:01.038Z,6.545
2023-05-19T09:48:01.082Z,6.467
2023-05-19T09:49:01.071Z,6.414
2023-05-19T09:50:01.085Z,6.43
2023-05-19T09:51:00.110Z,6.375
2023-05-19T09:52:00.158Z,6.455
2023-05-19T09:53:00.112Z,6.44
2023-05-19T09:54:00.167Z,6.505
2023-05-19T09:55:00.175Z,6.439
2023-05-19T09:56:00.144Z,6.484
2023-05-19T09:57:00.266Z,6.42
2023-05-19T09:58:00.209Z,6.382
2023-05-19T09:59:00.223Z,6.264
2023-05-19T10:00:00.332Z,6.277
2023-05-19T10:01:00.333Z,6.282
2023-05-19T10:02:00.296Z,6.334
2023-05-19T10:03:00.387Z,6.307
2023-05-19T10:04:00.343Z,6.21
2023-05-19T10:05:00.607Z,6.214
2023-05-19T10:06:00.399Z,6.182
2023-05-19T10:07:00.486Z,6.104
2023-05-19T10:08:00.437Z,6.013
2023-05-19T10:09:00.457Z,6.008
2023-05-19T10:10:00.496Z,6.069
2023-05-19T10:11:00.514Z,6.002
2023-05-19T10:12:00.518Z,5.967
2023-05-19T10:13:00.546Z,5.936
2023-05-19T10:14:00.549Z,5.948
2023-05-19T10:15:00.569Z,5.96
2023-05-19T10:16:01.074Z,5.993
2023-05-19T10:17:00.833Z,6.026
2023-05-19T10:18:00.618Z,6.082
2023-05-19T10:19:00.611Z,6.1
2023-05-19T10:20:00.617Z,6.16
2023-05-19T10:21:00.633Z,6.182
2023-05-19T10:22:00.667Z,6.176
2023-05-19T10:23:00.683Z,6.163
2023-05-19T10:24:00.703Z,6.185
2023-05-19T10:25:00.745Z,6.166
2023-05-19T10:26:00.751Z,6.114
2023-05-19T10:27:00.795Z,6.213
2023-05-19T10:28:00.796Z,6.261
2023-05-19T10:29:00.815Z,6.286
2023-05-19T10:30:00.842Z,6.344
2023-05-19T10:31:00.859Z,6.203
2023-05-19T10:32:00.929Z,6.224
2023-05-19T10:33:00.984Z,6.456
2023-05-19T10:34:00.924Z,6.496
2023-05-19T10:35:00.958Z,6.563
2023-05-19T10:36:00.956Z,6.484
2023-05-19T10:37:00.965Z,6.445
2023-05-19T10:38:00.992Z,6.39
2023-05-19T10:39:00.996Z,6.463
2023-05-19T10:40:01.011Z,6.492
2023-05-19T10:41:01.017Z,6.498
2023-05-19T10:42:01.024Z,6.466
2023-05-19T10:43:01.033Z,6.327
2023-05-19T10:44:01.078Z,6.379
2023-05-19T10:45:01.086Z,6.52
2023-05-19T10:46:00.133Z,6.445
2023-05-19T10:47:00.226Z,6.388
2023-05-19T10:48:00.277Z,6.503
2023-05-19T10:49:00.182Z,6.414
2023-05-19T10:50:00.230Z,6.441
2023-05-19T10:51:00.231Z,6.599
2023-05-19T10:52:00.274Z,6.65
2023-05-19T10:53:00.283Z,6.688
2023-05-19T10:54:00.308Z,6.652
2023-05-19T10:55:00.342Z,6.655
2023-05-19T10:56:00.346Z,6.451
2023-05-19T10:57:00.361Z,6.467
2023-05-19T10:58:00.415Z,6.366
2023-05-19T10:59:00.417Z,6.375
2023-05-19T11:00:00.445Z,6.359
2023-05-19T11:01:00.483Z,6.258
2023-05-19T11:02:00.484Z,6.307
2023-05-19T11:03:00.528Z,6.265
2023-05-19T11:04:00.537Z,6.292
2023-05-19T11:05:00.519Z,6.341
2023-05-19T11:06:00.522Z,6.332
2023-05-19T11:07:00.548Z,6.303
2023-05-19T11:08:00.566Z,6.289
2023-05-19T11:09:00.571Z,6.272
2023-05-19T11:10:00.582Z,6.263
2023-05-19T11:11:00.589Z,6.254
2023-05-19T11:12:00.627Z,6.358
2023-05-19T11:13:00.649Z,6.335
2023-05-19T11:14:00.681Z,6.345
2023-05-19T11:15:00.698Z,6.309
2023-05-19T11:16:00.728Z,6.231
2023-05-19T11:17:00.898Z,6.239
2023-05-19T11:18:00.846Z,6.187
2023-05-19T11:19:00.835Z,6.116
2023-05-19T11:20:00.823Z,6.071
2023-05-19T11:21:00.893Z,6.012
2023-05-19T11:22:00.859Z,6.029
2023-05-19T11:23:00.926Z,6.131
2023-05-19T11:24:01.018Z,6.063
2023-05-19T11:25:00.925Z,6.043
2023-05-19T11:26:00.948Z,6.157
2023-05-19T11:27:00.983Z,6.188
2023-05-19T11:28:01.001Z,6.294
2023-05-19T11:29:01.009Z,6.256
2023-05-19T11:30:01.023Z,6.292
2023-05-19T11:31:01.061Z,6.248
2023-05-19T11:32:01.115Z,6.239
2023-05-19T11:33:01.087Z,6.241
2023-05-19T11:34:01.072Z,6.181
2023-05-19T11:35:00.120Z,6.143
2023-05-19T11:36:00.147Z,6.113
2023-05-19T11:37:00.172Z,6.132
2023-05-19T11:38:00.176Z,6.197
2023-05-19T11:39:00.157Z,6.066
2023-05-19T11:40:00.177Z,6.105
2023-05-19T11:41:00.187Z,6.203
2023-05-19T11:42:00.209Z,6.224
2023-05-19T11:43:00.235Z,6.235
2023-05-19T11:44:00.253Z,6.209
2023-05-19T11:45:00.310Z,6.233
2023-05-19T11:46:00.454Z,6.22
2023-05-19T11:47:00.331Z,6.123
2023-05-19T11:48:02.521Z,6.131
2023-05-19T11:49:00.385Z,6.123
2023-05-19T11:50:00.384Z,6.081
2023-05-19T11:51:00.399Z,6.095
2023-05-19T11:52:00.423Z,6.069
2023-05-19T11:53:00.492Z,6.083
2023-05-19T11:54:00.492Z,6.101
2023-05-19T11:55:00.469Z,6.032
2023-05-19T11:56:00.482Z,6.171
2023-05-19T11:57:00.488Z,6.162
2023-05-19T11:58:04.074Z,6.119
2023-05-19T11:59:00.537Z,6.101
2023-05-19T12:00:00.528Z,6.08
2023-05-19T12:01:00.530Z,6.051
2023-05-19T12:02:00.546Z,6.017
2023-05-19T12:03:00.659Z,6.029
2023-05-19T12:04:00.648Z,6.001
2023-05-19T12:05:00.690Z,6.024
2023-05-19T12:06:00.724Z,6.015
2023-05-19T12:07:00.672Z,6.005
2023-05-19T12:08:00.701Z,5.925
2023-05-19T12:09:00.723Z,5.899
2023-05-19T12:10:00.769Z,5.956
2023-05-19T12:11:00.799Z,5.917
2023-05-19T12:12:00.860Z,5.94
2023-05-19T12:13:00.831Z,5.953
2023-05-19T12:14:00.842Z,5.877
2023-05-19T12:15:00.889Z,5.804
2023-05-19T12:16:00.954Z,5.813
2023-05-19T12:17:00.920Z,5.864
2023-05-19T12:18:01.009Z,5.776
2023-05-19T12:19:00.966Z,5.784
2023-05-19T12:20:00.949Z,5.767
2023-05-19T12:21:00.967Z,5.809
2023-05-19T12:22:02.223Z,5.827
2023-05-19T12:23:01.215Z,5.882
2023-05-19T12:24:01.033Z,5.891
2023-05-19T12:25:01.031Z,5.9
2023-05-19T12:26:01.033Z,5.888
2023-05-19T12:27:01.028Z,5.9
2023-05-19T12:28:01.066Z,5.874
2023-05-19T12:29:00.125Z,5.844
2023-05-19T12:30:00.159Z,5.842
2023-05-19T12:31:00.138Z,5.821
2023-05-19T12:32:00.290Z,5.829
2023-05-19T12:33:00.220Z,5.808
2023-05-19T12:34:00.225Z,5.825
2023-05-19T12:35:00.280Z,5.804
2023-05-19T12:36:00.314Z,5.825
2023-05-19T12:37:00.303Z,5.861
2023-05-19T12:38:00.334Z,5.809
2023-05-19T12:39:00.373Z,5.803
2023-05-19T12:40:00.391Z,5.787
2023-05-19T12:41:00.436Z,5.725
2023-05-19T12:42:00.470Z,5.755
2023-05-19T12:43:00.467Z,5.734
2023-05-19T12:44:00.486Z,5.739
2023-05-19T12:45:01.537Z,5.768
2023-05-19T12:46:00.589Z,5.777
2023-05-19T12:47:00.557Z,5.754
2023-05-19T12:48:00.630Z,5.726
2023-05-19T12:49:00.592Z,5.743
2023-05-19T12:50:00.609Z,5.705
2023-05-19T12:51:00.618Z,5.641
2023-05-19T12:52:02.580Z,5.682
2023-05-19T12:53:00.649Z,5.649
2023-05-19T12:54:00.673Z,5.723
2023-05-19T12:55:00.708Z,5.743
2023-05-19T12:56:00.660Z,5.777
2023-05-19T12:57:00.686Z,5.803